createdAt,value
2018-11-21T00:02:20.966Z,1.00
2018-11-21T00:04:50.572Z,0.98
2018-11-21T00:07:20.274Z,0.96
2018-11-21T00:09:49.973Z,0.95
2018-11-21T00:12:19.579Z,0.96
2018-11-21T00:14:49.205Z,0.98
2018-11-21T00:17:18.899Z,1.00
2018-11-21T00:19:48.609Z,1.02
2018-11-21T00:22:18.475Z,1.03
2018-11-21T00:24:48.156Z,1.05
2018-11-21T00:27:17.802Z,1.05
2018-11-21T00:29:47.412Z,1.04
2018-11-21T00:32:26.956Z,1.01
2018-11-21T00:34:56.879Z,0.98
2018-11-21T00:37:26.976Z,0.98
2018-11-21T00:39:56.642Z,1.01
2018-11-21T00:42:26.240Z,1.02
2018-11-21T00:44:55.867Z,1.02
2018-11-21T00:47:25.574Z,1.00
2018-11-21T00:49:55.180Z,1.03
2018-11-21T00:52:25.023Z,1.02
2018-11-21T00:54:54.664Z,1.04
2018-11-21T00:57:24.343Z,1.03
2018-11-21T01:00:13.425Z,1.03
2018-11-21T01:02:43.180Z,1.04
2018-11-21T01:05:12.786Z,1.01
2018-11-21T01:07:42.726Z,0.93
2018-11-21T01:10:12.370Z,0.94
2018-11-21T01:12:42.006Z,0.98
2018-11-21T01:15:11.667Z,1.06
2018-11-21T01:17:41.312Z,1.14
2018-11-21T01:20:10.902Z,1.20
2018-11-21T01:22:40.799Z,1.25
2018-11-21T01:25:10.398Z,1.28
2018-11-21T01:27:40.009Z,1.31
2018-11-21T01:30:09.969Z,1.35
2018-11-21T01:32:39.746Z,1.38
2018-11-21T01:35:09.646Z,1.39
2018-11-21T01:37:39.310Z,0.69
2018-11-21T01:40:09.993Z,1.42
2018-11-21T01:42:39.688Z,1.45
2018-11-21T01:45:09.364Z,1.46
2018-11-21T01:47:38.974Z,1.45
2018-11-21T01:50:09.644Z,1.46
2018-11-21T01:52:39.300Z,1.44
2018-11-21T01:55:09.083Z,1.45
2018-11-21T01:57:38.709Z,1.43
2018-11-21T02:00:10.373Z,1.41
2018-11-21T02:02:39.997Z,1.41
2018-11-21T02:05:28.524Z,1.42
2018-11-21T02:07:58.278Z,1.45
2018-11-21T02:10:28.159Z,1.45
2018-11-21T02:12:57.812Z,1.46
2018-11-21T02:15:27.468Z,1.45
2018-11-21T02:17:57.087Z,1.42
2018-11-21T02:20:26.843Z,1.42
2018-11-21T02:22:56.598Z,1.43
2018-11-21T02:25:26.585Z,1.46
2018-11-21T02:27:56.228Z,0.36
2018-11-21T02:30:25.933Z,1.45
2018-11-21T02:32:55.513Z,1.43
2018-11-21T02:35:44.074Z,1.44
2018-11-21T02:38:13.691Z,1.45
2018-11-21T02:40:43.605Z,1.44
2018-11-21T02:43:13.265Z,1.46
2018-11-21T02:45:42.890Z,1.43
2018-11-21T02:48:12.534Z,1.42
2018-11-21T02:51:01.140Z,1.41
2018-11-21T02:53:30.950Z,1.42
2018-11-21T02:56:00.898Z,1.43
2018-11-21T02:58:49.178Z,1.45
2018-11-21T03:01:18.814Z,1.45
2018-11-21T03:03:48.772Z,1.45
2018-11-21T03:06:18.524Z,1.46
2018-11-21T03:08:48.154Z,1.47
2018-11-21T03:11:17.997Z,1.47
2018-11-21T03:13:47.657Z,1.47
2018-11-21T03:16:17.257Z,1.47
2018-11-21T03:18:46.877Z,1.48
2018-11-21T03:21:35.162Z,1.48
2018-11-21T03:24:04.798Z,1.48
2018-11-21T03:26:34.615Z,1.47
2018-11-21T03:29:04.302Z,1.48
2018-11-21T03:31:33.913Z,1.48
2018-11-21T03:34:03.510Z,1.49
2018-11-21T03:36:33.172Z,1.50
2018-11-21T03:39:22.795Z,1.50
2018-11-21T03:41:52.572Z,1.49
2018-11-21T03:44:22.178Z,1.51
2018-11-21T03:46:51.780Z,1.52
2018-11-21T03:49:21.443Z,1.49
2018-11-21T03:52:09.688Z,1.49
2018-11-21T03:54:39.364Z,1.49
2018-11-21T03:57:27.826Z,1.46
2018-11-21T04:00:16.078Z,1.46
2018-11-21T04:02:45.692Z,1.47
2018-11-21T04:05:15.303Z,1.48
2018-11-21T04:07:44.927Z,1.49
2018-11-21T04:10:15.080Z,1.51
2018-11-21T04:12:44.697Z,1.50
2018-11-21T04:15:14.745Z,1.52
2018-11-21T04:17:44.339Z,1.51
2018-11-21T04:20:13.940Z,1.51
2018-11-21T04:22:43.598Z,1.52
2018-11-21T04:25:13.204Z,1.53
2018-11-21T04:28:02.090Z,1.55
2018-11-21T04:30:31.711Z,1.56
2018-11-21T04:33:01.341Z,1.55
2018-11-21T04:35:30.950Z,1.57
2018-11-21T04:38:19.482Z,1.57
2018-11-21T04:40:49.322Z,1.58
2018-11-21T04:43:19.023Z,1.60
2018-11-21T04:45:48.622Z,1.62
2018-11-21T04:48:18.264Z,1.62
2018-11-21T04:50:47.878Z,1.65
2018-11-21T04:53:17.497Z,1.66
2018-11-21T04:55:47.124Z,1.67
2018-11-21T04:58:16.815Z,1.67
2018-11-21T05:01:05.175Z,1.68
2018-11-21T05:03:34.782Z,1.71
2018-11-21T05:06:04.394Z,1.71
2018-11-21T05:08:34.063Z,1.73
2018-11-21T05:11:03.738Z,1.76
2018-11-21T05:13:33.710Z,1.78
2018-11-21T05:16:03.399Z,1.79
2018-11-21T05:18:51.645Z,1.81
2018-11-21T05:21:21.454Z,1.81
2018-11-21T05:23:51.066Z,1.83
2018-11-21T05:26:20.659Z,1.83
2018-11-21T05:28:50.409Z,1.86
2018-11-21T05:31:20.128Z,1.88
2018-11-21T05:34:08.724Z,1.88
2018-11-21T05:36:38.281Z,1.88
2018-11-21T05:39:11.525Z,1.91
2018-11-21T05:41:41.429Z,1.91
2018-11-21T05:44:11.144Z,1.92
2018-11-21T05:46:40.849Z,1.96
2018-11-21T05:49:10.506Z,1.99
2018-11-21T05:51:59.125Z,2.01
2018-11-21T05:54:28.808Z,2.04
2018-11-21T05:56:58.444Z,2.05
2018-11-21T05:59:28.219Z,2.06
2018-11-21T06:01:57.900Z,2.09
2018-11-21T06:04:27.600Z,2.10
2018-11-21T06:06:57.261Z,2.15
2018-11-21T06:09:26.985Z,2.16
2018-11-21T06:11:56.675Z,2.19
2018-11-21T06:14:26.686Z,2.23
2018-11-21T06:17:15.187Z,2.21
2018-11-21T06:19:44.791Z,2.23
2018-11-21T06:22:33.443Z,2.25
2018-11-21T06:25:03.077Z,2.27
2018-11-21T06:27:32.703Z,2.27
2018-11-21T06:30:02.551Z,2.30
2018-11-21T06:32:50.791Z,2.34
2018-11-21T06:35:20.589Z,2.34
2018-11-21T06:37:50.208Z,2.38
2018-11-21T06:40:19.825Z,2.40
2018-11-21T06:43:08.196Z,2.43
2018-11-21T06:45:37.830Z,2.48
2018-11-21T06:48:07.436Z,2.50
2018-11-21T06:50:37.122Z,2.52
2018-11-21T06:53:07.341Z,2.56
2018-11-21T06:55:36.960Z,2.58
2018-11-21T06:58:06.878Z,2.60
2018-11-21T07:00:36.694Z,2.62
2018-11-21T07:03:06.732Z,2.64
2018-11-21T07:05:36.706Z,2.64
2018-11-21T07:08:06.375Z,2.66
2018-11-21T07:10:55.001Z,2.69
2018-11-21T07:13:43.530Z,2.73
2018-11-21T07:16:13.207Z,2.76
2018-11-21T07:18:42.927Z,2.80
2018-11-21T07:21:12.938Z,2.83
2018-11-21T07:23:43.362Z,2.86
2018-11-21T07:26:31.355Z,2.88
2018-11-21T07:31:41.735Z,2.93
2018-11-21T07:34:29.992Z,2.97
2018-11-21T07:36:59.647Z,2.99
2018-11-21T07:39:29.259Z,2.99
2018-11-21T07:41:58.907Z,3.02
2018-11-21T07:44:28.564Z,3.03
2018-11-21T07:47:17.447Z,3.05
2018-11-21T07:49:47.242Z,3.05
2018-11-21T07:52:16.874Z,3.07
2018-11-21T07:55:05.167Z,3.07
2018-11-21T07:57:39.356Z,3.08
2018-11-21T08:00:57.381Z,3.11
2018-11-21T08:03:28.920Z,3.11
2018-11-21T08:06:17.212Z,3.13
2018-11-21T08:09:05.460Z,3.15
2018-11-21T08:11:53.748Z,3.16
2018-11-21T08:14:41.999Z,3.16
2018-11-21T08:17:30.309Z,3.16
2018-11-21T08:20:18.836Z,3.18
2018-11-21T08:23:07.142Z,3.20
2018-11-21T08:25:55.382Z,3.17
2018-11-21T08:28:43.682Z,3.17
2018-11-21T08:31:13.285Z,3.18
2018-11-21T08:33:42.883Z,3.16
2018-11-21T08:36:12.943Z,3.16
2018-11-21T08:38:42.575Z,3.16
2018-11-21T08:41:12.182Z,3.16
2018-11-21T08:44:00.513Z,3.15
2018-11-21T08:46:42.003Z,3.16
2018-11-21T08:49:11.667Z,3.16
2018-11-21T08:51:41.462Z,3.17
2018-11-21T08:54:29.783Z,3.20
2018-11-21T08:56:59.377Z,3.21
2018-11-21T08:59:47.911Z,3.20
2018-11-21T09:02:17.747Z,3.23
2018-11-21T09:04:47.348Z,3.24
2018-11-21T09:07:17.237Z,3.26
2018-11-21T09:10:05.481Z,3.26
2018-11-21T09:12:35.121Z,3.27
2018-11-21T09:15:04.813Z,3.28
2018-11-21T09:17:34.446Z,3.27
2018-11-21T09:20:04.089Z,3.27
2018-11-21T09:22:33.866Z,3.29
2018-11-21T09:25:03.494Z,3.30
2018-11-21T09:27:51.784Z,3.31
2018-11-21T09:30:40.036Z,3.32
2018-11-21T09:35:50.557Z,3.34
2018-11-21T09:38:20.573Z,3.35
2018-11-21T09:41:09.186Z,3.37
2018-11-21T09:43:38.798Z,3.39
2018-11-21T09:46:08.542Z,3.41
2018-11-21T09:48:57.094Z,3.41
2018-11-21T09:51:45.606Z,3.43
2018-11-21T09:54:15.500Z,3.42
2018-11-21T09:56:45.100Z,3.43
2018-11-21T09:59:14.752Z,3.45
2018-11-21T10:02:23.165Z,3.48
2018-11-21T10:08:23.978Z,3.50
2018-11-21T10:10:53.995Z,3.52
2018-11-21T10:13:23.946Z,3.51
2018-11-21T10:15:53.597Z,3.51
2018-11-21T10:18:23.204Z,3.51
2018-11-21T10:20:52.814Z,3.52
2018-11-21T10:23:22.486Z,3.53
2018-11-21T10:25:52.621Z,3.56
2018-11-21T10:28:22.508Z,3.57
2018-11-21T10:31:10.770Z,3.59
2018-11-21T10:33:40.375Z,3.60
2018-11-21T10:36:10.010Z,3.61
2018-11-21T10:38:39.680Z,3.64
2018-11-21T10:41:09.651Z,3.63
2018-11-21T10:43:39.344Z,3.62
2018-11-21T10:46:09.262Z,3.61
2018-11-21T10:48:38.910Z,3.61
2018-11-21T10:51:08.527Z,3.63
2018-11-21T10:53:38.188Z,3.65
2018-11-21T10:56:08.355Z,3.68
2018-11-21T10:58:37.962Z,3.68
2018-11-21T11:01:26.276Z,3.69
2018-11-21T11:04:14.772Z,3.69
2018-11-21T11:07:03.161Z,3.71
2018-11-21T11:09:51.413Z,3.74
2018-11-21T11:12:40.399Z,3.78
2018-11-21T11:15:28.776Z,3.79
2018-11-21T11:18:17.073Z,3.79
2018-11-21T11:21:05.325Z,3.79
2018-11-21T11:23:53.620Z,3.77
2018-11-21T11:26:42.081Z,3.75
2018-11-21T11:29:30.375Z,3.74
2018-11-21T11:32:18.657Z,3.75
2018-11-21T11:35:06.928Z,3.76
2018-11-21T11:37:51.847Z,3.75
2018-11-21T11:40:40.377Z,3.73
2018-11-21T11:43:47.823Z,3.71
2018-11-21T11:46:36.136Z,3.71
2018-11-21T11:49:24.405Z,3.70
2018-11-21T11:52:12.701Z,3.68
2018-11-21T11:55:19.854Z,3.69
2018-11-21T11:58:08.359Z,3.66
2018-11-21T12:00:57.483Z,3.66
2018-11-21T12:06:26.097Z,3.70
2018-11-21T12:09:14.377Z,3.74
2018-11-21T12:12:04.959Z,3.74
2018-11-21T12:14:51.127Z,3.74
2018-11-21T12:17:39.431Z,3.75
2018-11-21T12:20:28.275Z,3.75
2018-11-21T12:23:16.684Z,3.76
2018-11-21T12:26:10.436Z,2.73
2018-11-21T12:28:42.401Z,3.74
2018-11-21T12:31:49.706Z,3.69
2018-11-21T12:34:37.971Z,3.66
2018-11-21T12:37:26.254Z,3.61
2018-11-21T12:40:14.548Z,3.57
2018-11-21T12:43:02.789Z,3.57
2018-11-21T12:45:51.062Z,3.56
2018-11-21T12:51:32.747Z,3.50
2018-11-21T12:54:20.997Z,3.49
2018-11-21T12:57:09.289Z,3.49
2018-11-21T12:59:57.735Z,3.47
2018-11-21T13:02:46.199Z,3.44
2018-11-21T13:05:24.165Z,3.42
2018-11-21T13:08:12.802Z,3.41
2018-11-21T13:11:01.048Z,3.39
2018-11-21T13:13:49.346Z,3.36
2018-11-21T13:16:37.966Z,3.32
2018-11-21T13:19:26.511Z,3.32
2018-11-21T13:22:14.875Z,3.33
2018-11-21T13:25:03.143Z,3.32
2018-11-21T13:27:51.401Z,3.29
2018-11-21T13:30:39.708Z,3.24
2018-11-21T13:33:27.963Z,3.25
2018-11-21T13:36:16.231Z,3.24
2018-11-21T13:39:04.518Z,2.22
2018-11-21T13:42:11.771Z,3.18
2018-11-21T13:45:00.016Z,3.15
2018-11-21T13:50:34.164Z,3.09
2018-11-21T13:53:17.567Z,3.08
2018-11-21T13:55:47.198Z,3.05
2018-11-21T13:58:16.795Z,3.06
2018-11-21T14:00:46.412Z,3.04
2018-11-21T14:03:16.072Z,3.01
2018-11-21T14:06:04.639Z,2.99
2018-11-21T14:08:34.684Z,2.97
2018-11-21T14:11:04.289Z,2.96
2018-11-21T14:13:33.894Z,2.97
2018-11-21T14:16:24.929Z,2.94
2018-11-21T14:18:54.458Z,2.93
2018-11-21T14:21:24.049Z,2.90
2018-11-21T14:23:53.741Z,2.88
2018-11-21T14:26:23.360Z,2.86
2018-11-21T14:28:55.204Z,2.82
2018-11-21T14:31:25.304Z,2.80
2018-11-21T14:34:13.625Z,2.75
2018-11-21T14:39:24.467Z,2.70
2018-11-21T14:41:54.078Z,2.71
2018-11-21T14:44:23.683Z,2.70
2018-11-21T14:46:54.561Z,2.69
2018-11-21T14:49:24.166Z,2.66
2018-11-21T14:51:53.952Z,2.66
2018-11-21T14:54:23.899Z,2.61
2018-11-21T14:56:53.540Z,2.61
2018-11-21T14:59:23.146Z,2.58
2018-11-21T15:01:52.784Z,2.58
2018-11-21T15:04:22.392Z,2.56
2018-11-21T15:06:51.997Z,2.54
2018-11-21T15:09:21.641Z,2.52
2018-11-21T15:12:09.911Z,2.49
2018-11-21T15:14:39.749Z,2.48
2018-11-21T15:17:09.436Z,2.48
2018-11-21T15:19:39.018Z,2.48
2018-11-21T15:22:08.641Z,2.47
2018-11-21T15:24:38.248Z,2.44
2018-11-21T15:27:07.833Z,2.43
2018-11-21T15:29:37.459Z,2.43
2018-11-21T15:32:07.045Z,2.42
2018-11-21T15:34:36.619Z,2.43
2018-11-21T15:37:06.634Z,1.77
2018-11-21T15:39:36.202Z,2.42
2018-11-21T15:42:06.417Z,2.43
2018-11-21T15:44:36.156Z,2.44
2018-11-21T15:47:24.340Z,2.43
2018-11-21T15:49:53.954Z,2.43
2018-11-21T15:52:23.623Z,2.42
2018-11-21T15:54:53.222Z,2.42
2018-11-21T15:57:22.923Z,2.43
2018-11-21T15:59:52.553Z,2.42
2018-11-21T16:02:22.172Z,2.42
2018-11-21T16:04:51.811Z,2.43
2018-11-21T16:07:21.387Z,2.43
2018-11-21T16:09:50.977Z,2.46
2018-11-21T16:12:20.615Z,2.44
2018-11-21T16:14:50.176Z,2.41
2018-11-21T16:17:19.819Z,2.39
2018-11-21T16:20:09.156Z,2.38
2018-11-21T16:22:50.644Z,2.37
2018-11-21T16:25:32.062Z,2.37
2018-11-21T16:28:01.755Z,2.37
2018-11-21T16:30:31.392Z,2.37
2018-11-21T16:33:01.140Z,2.36
2018-11-21T16:35:49.373Z,2.36
2018-11-21T16:38:18.982Z,2.36
2018-11-21T16:40:48.570Z,2.37
2018-11-21T16:43:18.141Z,2.38
2018-11-21T16:45:49.781Z,2.39
2018-11-21T16:48:19.680Z,2.39
2018-11-21T16:50:48.911Z,2.39
2018-11-21T16:53:18.789Z,2.37
2018-11-21T16:55:48.382Z,2.35
2018-11-21T16:58:17.942Z,2.35
2018-11-21T17:00:47.581Z,2.35
2018-11-21T17:03:17.150Z,2.35
2018-11-21T17:05:46.817Z,2.36
2018-11-21T17:08:16.351Z,2.38
2018-11-21T17:10:45.941Z,2.38
2018-11-21T17:13:15.566Z,2.38
2018-11-21T17:15:45.205Z,2.38
2018-11-21T17:18:14.785Z,2.38
2018-11-21T17:20:45.405Z,2.38
2018-11-21T17:23:15.054Z,2.38
2018-11-21T17:26:03.591Z,2.36
2018-11-21T17:28:33.275Z,2.38
2018-11-21T17:31:21.473Z,2.38
2018-11-21T17:33:52.316Z,2.39
2018-11-21T17:36:20.944Z,2.40
2018-11-21T17:38:50.460Z,2.39
2018-11-21T17:41:20.167Z,2.38
2018-11-21T17:43:49.761Z,2.37
2018-11-21T17:46:19.360Z,2.38
2018-11-21T17:48:48.978Z,2.39
2018-11-21T17:51:18.546Z,2.38
2018-11-21T17:53:48.284Z,2.36
2018-11-21T17:56:17.897Z,2.34
2018-11-21T17:58:47.480Z,2.33
2018-11-21T18:01:17.059Z,2.31
2018-11-21T18:03:46.728Z,2.31
2018-11-21T18:06:34.940Z,2.31
2018-11-21T18:09:05.522Z,1.63
2018-11-21T18:11:35.112Z,2.32
2018-11-21T18:14:04.703Z,2.33
2018-11-21T18:16:34.518Z,2.30
2018-11-21T18:19:04.595Z,2.27
2018-11-21T18:21:34.176Z,2.29
2018-11-21T18:24:03.856Z,2.29
2018-11-21T18:26:33.369Z,2.30
2018-11-21T18:29:02.992Z,2.30
2018-11-21T18:31:51.273Z,2.28
2018-11-21T18:34:20.859Z,2.23
2018-11-21T18:36:50.428Z,2.11
2018-11-21T18:39:20.100Z,2.08
2018-11-21T18:42:08.586Z,2.08
2018-11-21T18:44:38.366Z,2.06
2018-11-21T18:47:07.921Z,1.46
2018-11-21T18:49:37.512Z,2.13
2018-11-21T18:52:07.149Z,2.18
2018-11-21T18:54:36.902Z,2.22
2018-11-21T18:57:37.893Z,2.26
2018-11-21T19:00:37.096Z,2.25
2018-11-21T19:03:06.851Z,2.25
2018-11-21T19:05:36.439Z,2.16
2018-11-21T19:08:06.248Z,2.16
2018-11-21T19:10:35.970Z,2.18
2018-11-21T19:13:05.898Z,2.19
2018-11-21T19:15:35.497Z,2.14
2018-11-21T19:18:05.153Z,2.11
2018-11-21T19:20:53.697Z,2.13
2018-11-21T19:23:23.337Z,2.01
2018-11-21T19:25:52.927Z,1.95
2018-11-21T19:28:22.499Z,1.98
2018-11-21T19:31:10.794Z,2.01
2018-11-21T19:33:40.379Z,2.04
2018-11-21T19:36:09.947Z,2.09
2018-11-21T19:38:39.619Z,2.12
2018-11-21T19:41:28.089Z,2.15
2018-11-21T19:43:57.853Z,2.16
2018-11-21T19:46:27.340Z,2.18
2018-11-21T19:49:15.701Z,2.19
2018-11-21T19:51:45.287Z,2.16
2018-11-21T19:54:14.886Z,2.11
2018-11-21T19:56:44.798Z,2.12
2018-11-21T19:59:14.421Z,2.13
2018-11-21T20:01:44.033Z,2.14
2018-11-21T20:04:13.687Z,2.15
2018-11-21T20:06:43.309Z,2.17
2018-11-21T20:09:20.626Z,2.18
2018-11-21T20:11:50.413Z,2.20
2018-11-21T20:14:20.080Z,2.22
2018-11-21T20:16:49.914Z,2.13
2018-11-21T20:19:19.514Z,2.06
2018-11-21T20:21:49.179Z,2.02
2018-11-21T20:24:18.854Z,2.05
2018-11-21T20:26:48.807Z,2.07
2018-11-21T20:29:18.522Z,2.09
2018-11-21T20:31:48.184Z,2.10
2018-11-21T20:34:17.855Z,2.10
2018-11-21T20:36:47.491Z,2.11
2018-11-21T20:39:17.162Z,2.12
2018-11-21T20:41:48.876Z,2.15
2018-11-21T20:44:37.468Z,2.18
2018-11-21T20:47:07.655Z,2.19
2018-11-21T20:49:37.309Z,2.20
2018-11-21T20:52:07.099Z,2.19
2018-11-21T20:54:36.740Z,2.13
2018-11-21T20:57:06.785Z,2.09
2018-11-21T20:59:36.533Z,2.09
2018-11-21T21:02:06.128Z,2.07
2018-11-21T21:04:35.807Z,2.00
2018-11-21T21:07:05.437Z,1.91
2018-11-21T21:09:53.646Z,1.89
2018-11-21T21:12:34.602Z,1.92
2018-11-21T21:15:04.187Z,1.92
2018-11-21T21:17:33.774Z,1.90
2018-11-21T21:20:23.760Z,1.88
2018-11-21T21:22:55.103Z,1.92
2018-11-21T21:25:26.257Z,1.93
2018-11-21T21:28:14.869Z,1.94
2018-11-21T21:30:44.876Z,1.95
2018-11-21T21:33:33.480Z,1.98
2018-11-21T21:36:03.062Z,2.01
2018-11-21T21:38:32.659Z,2.02
2018-11-21T21:41:02.309Z,2.06
2018-11-21T21:43:31.903Z,2.08
2018-11-21T21:46:20.444Z,2.10
2018-11-21T21:48:50.052Z,2.10
2018-11-21T21:51:19.633Z,2.04
2018-11-21T21:53:49.348Z,2.00
2018-11-21T21:56:19.118Z,1.97
2018-11-21T21:58:48.855Z,1.94
2018-11-21T22:01:18.482Z,1.92
2018-11-21T22:04:07.024Z,1.94
2018-11-21T22:06:55.321Z,1.94
2018-11-21T22:09:43.792Z,1.88
2018-11-21T22:12:13.415Z,1.85
2018-11-21T22:14:42.985Z,1.84
2018-11-21T22:17:12.566Z,1.85
2018-11-21T22:19:42.202Z,1.86
2018-11-21T22:22:11.771Z,1.86
2018-11-21T22:24:41.412Z,1.84
2018-11-21T22:27:29.996Z,1.85
2018-11-21T22:29:59.580Z,1.83
2018-11-21T22:32:29.145Z,1.82
2018-11-21T22:34:58.763Z,1.81
2018-11-21T22:37:28.366Z,1.79
2018-11-21T22:39:57.988Z,1.82
2018-11-21T22:42:46.916Z,1.82
2018-11-21T22:45:27.416Z,1.80
2018-11-21T22:48:15.655Z,1.78
2018-11-21T22:50:45.246Z,1.78
2018-11-21T22:53:14.848Z,1.78
2018-11-21T22:55:44.552Z,1.78
2018-11-21T22:58:14.389Z,1.74
2018-11-21T23:00:48.985Z,1.75
2018-11-21T23:05:59.037Z,1.69
2018-11-21T23:08:28.616Z,1.71
2018-11-21T23:10:58.239Z,1.72
2018-11-21T23:13:28.099Z,1.70
2018-11-21T23:15:57.683Z,1.62
2018-11-21T23:18:27.257Z,1.58
2018-11-21T23:20:59.013Z,1.52
2018-11-21T23:23:47.218Z,1.45
2018-11-21T23:26:28.001Z,1.45
2018-11-21T23:28:57.728Z,1.43
2018-11-21T23:31:27.307Z,1.42
2018-11-21T23:33:56.954Z,1.39
2018-11-21T23:36:26.525Z,1.37
2018-11-21T23:38:56.138Z,1.35
2018-11-21T23:41:25.777Z,1.33
2018-11-21T23:43:55.627Z,1.29
2018-11-21T23:46:25.208Z,1.28
2018-11-21T23:48:54.814Z,1.26
2018-11-21T23:51:24.395Z,1.23
2018-11-21T23:53:53.993Z,1.20
2018-11-21T23:56:23.609Z,1.18
2018-11-21T23:58:53.169Z,1.14
